createdAt,value
2022-11-17T00:01:51.804Z,8.02
2022-11-17T00:06:53.349Z,8.26
2022-11-17T00:11:54.875Z,8.40
2022-11-17T00:16:56.380Z,8.42
2022-11-17T00:21:57.873Z,8.57
2022-11-17T00:26:59.391Z,8.67
2022-11-17T00:32:01.660Z,8.71
2022-11-17T00:37:03.727Z,8.84
2022-11-17T00:42:05.327Z,8.91
2022-11-17T00:47:06.869Z,8.91
2022-11-17T00:52:09.849Z,8.89
2022-11-17T00:57:11.366Z,8.91
2022-11-17T01:02:12.869Z,8.90
2022-11-17T01:07:14.424Z,8.87
2022-11-17T01:12:15.958Z,8.76
2022-11-17T01:17:17.458Z,8.76
2022-11-17T01:22:18.974Z,8.89
2022-11-17T01:27:20.501Z,8.93
2022-11-17T01:32:21.988Z,8.92
2022-11-17T01:37:23.488Z,8.89
2022-11-17T01:42:26.642Z,8.85
2022-11-17T01:47:49.565Z,8.99
2022-11-17T01:52:53.925Z,9.00
2022-11-17T01:58:00.543Z,9.01
2022-11-17T02:03:02.451Z,8.88
2022-11-17T02:08:06.653Z,8.77
2022-11-17T02:13:09.194Z,8.70
2022-11-17T02:18:10.727Z,8.64
2022-11-17T02:23:12.161Z,8.41
2022-11-17T02:28:18.484Z,8.23
2022-11-17T02:39:55.027Z,8.20
2022-11-17T02:45:01.052Z,8.20
2022-11-17T02:50:07.003Z,8.05
2022-11-17T02:55:10.802Z,8.00
2022-11-17T03:00:15.800Z,7.96
2022-11-17T03:05:26.668Z,8.07
2022-11-17T03:10:53.033Z,8.11
2022-11-17T03:16:12.206Z,8.21
2022-11-17T03:21:22.344Z,8.48
2022-11-17T03:26:30.683Z,8.69
2022-11-17T03:31:33.599Z,8.79
2022-11-17T03:36:39.628Z,8.85
2022-11-17T03:41:46.902Z,8.92
2022-11-17T03:46:52.234Z,8.86
2022-11-17T03:51:54.016Z,8.78
2022-11-17T03:56:58.268Z,8.67
2022-11-17T04:01:59.987Z,8.63
2022-11-17T04:07:01.577Z,8.62
2022-11-17T04:12:04.582Z,8.62
2022-11-17T04:17:06.094Z,8.61
2022-11-17T04:22:07.606Z,8.62
2022-11-17T04:27:09.363Z,8.68
2022-11-17T04:32:10.869Z,8.69
2022-11-17T04:37:12.356Z,8.59
2022-11-17T04:42:13.877Z,8.61
2022-11-17T04:47:15.475Z,8.58
2022-11-17T04:52:16.987Z,8.69
2022-11-17T04:57:18.479Z,8.81
2022-11-17T05:02:20.029Z,8.77
2022-11-17T05:07:21.611Z,8.78
2022-11-17T05:12:23.221Z,8.81
2022-11-17T05:17:24.728Z,8.85
2022-11-17T05:22:26.292Z,8.85
2022-11-17T05:27:27.805Z,8.83
2022-11-17T05:32:29.304Z,8.89
2022-11-17T05:37:30.850Z,8.89
2022-11-17T05:42:32.527Z,8.89
2022-11-17T05:47:34.087Z,8.82
2022-11-17T05:52:35.577Z,8.77
2022-11-17T05:57:37.386Z,8.70
2022-11-17T06:02:47.017Z,8.59
2022-11-17T06:07:48.470Z,8.53
2022-11-17T06:12:49.991Z,8.36
2022-11-17T06:17:58.489Z,8.28
2022-11-17T06:23:02.730Z,8.22
2022-11-17T06:28:08.262Z,8.25
2022-11-17T06:33:14.176Z,8.10
2022-11-17T06:38:15.660Z,8.05
2022-11-17T06:43:17.273Z,8.13
2022-11-17T06:48:19.342Z,8.30
2022-11-17T06:53:21.766Z,7.97
2022-11-17T06:58:23.281Z,7.72
2022-11-17T07:03:24.801Z,7.84
2022-11-17T07:08:26.620Z,7.82
2022-11-17T07:13:28.159Z,7.76
2022-11-17T07:18:30.096Z,7.72
2022-11-17T07:23:33.299Z,7.81
2022-11-17T07:28:35.548Z,7.87
2022-11-17T07:33:37.204Z,8.05
2022-11-17T07:38:39.981Z,8.32
2022-11-17T07:43:42.504Z,8.41
2022-11-17T07:48:44.068Z,8.55
2022-11-17T07:53:45.540Z,8.72
2022-11-17T07:58:47.040Z,8.85
2022-11-17T08:03:48.755Z,9.17
2022-11-17T08:08:51.018Z,9.35
2022-11-17T15:06:42.642Z,13.35
2022-11-17T15:11:44.159Z,13.20
2022-11-17T15:16:45.616Z,13.06
2022-11-17T15:21:47.087Z,12.77
2022-11-17T15:26:48.648Z,12.68
2022-11-17T15:31:50.094Z,12.60
2022-11-17T15:36:51.567Z,12.57
2022-11-17T15:41:53.015Z,12.53
2022-11-17T15:46:54.523Z,12.54
2022-11-17T15:51:56.072Z,12.54
2022-11-17T15:56:57.506Z,12.57
2022-11-17T16:01:58.962Z,12.55
2022-11-17T16:07:00.523Z,12.41
2022-11-17T16:12:02.160Z,12.32
2022-11-17T16:17:03.626Z,12.26
2022-11-17T16:22:05.057Z,11.98
2022-11-17T16:27:06.534Z,11.62
2022-11-17T16:32:07.928Z,11.46
2022-11-17T16:37:09.344Z,11.28
2022-11-17T16:42:10.745Z,11.25
2022-11-17T16:47:12.214Z,11.19
2022-11-17T16:52:13.611Z,11.14
2022-11-17T16:57:15.009Z,11.08
2022-11-17T17:02:16.404Z,11.06
2022-11-17T17:07:17.943Z,10.97
2022-11-17T17:12:22.190Z,10.93
2022-11-17T17:17:23.619Z,10.77
2022-11-17T17:22:25.087Z,10.59
2022-11-17T17:27:30.190Z,10.56
2022-11-17T17:32:31.620Z,10.68
2022-11-17T17:37:33.022Z,10.53
2022-11-17T17:42:34.441Z,10.66
2022-11-17T17:47:35.906Z,10.79
2022-11-17T17:52:37.393Z,10.71
2022-11-17T17:57:38.857Z,10.61
2022-11-17T18:02:40.483Z,10.61
2022-11-17T18:07:42.038Z,10.54
2022-11-17T18:12:43.577Z,10.48
2022-11-17T18:17:44.998Z,10.45
2022-11-17T18:22:46.428Z,10.52
2022-11-17T18:27:47.870Z,10.49
2022-11-17T18:32:49.276Z,10.46
2022-11-17T18:37:50.730Z,10.43
2022-11-17T18:42:52.191Z,10.29
2022-11-17T18:47:53.602Z,10.38
2022-11-17T18:52:55.063Z,10.40
2022-11-17T18:57:56.501Z,10.43
2022-11-17T19:02:57.897Z,10.45
2022-11-17T19:07:59.335Z,10.54
2022-11-17T19:13:00.810Z,10.60
2022-11-17T19:18:02.350Z,10.66
2022-11-17T19:23:03.876Z,10.87
2022-11-17T19:28:06.563Z,10.85
2022-11-17T19:33:08.033Z,10.94
2022-11-17T19:38:09.682Z,10.95
2022-11-17T19:43:11.122Z,10.94
2022-11-17T19:48:12.572Z,10.87
2022-11-17T19:53:14.005Z,10.74
2022-11-17T19:58:16.619Z,10.63
2022-11-17T20:03:20.737Z,10.50
2022-11-17T20:08:22.217Z,10.30
2022-11-17T20:13:23.628Z,10.13
2022-11-17T20:18:25.162Z,9.88
2022-11-17T20:23:26.599Z,9.95
2022-11-17T20:28:31.496Z,9.74
2022-11-17T20:33:33.172Z,9.81
2022-11-17T20:38:35.438Z,9.83
2022-11-17T20:43:37.076Z,9.91
2022-11-17T20:48:38.537Z,9.97
2022-11-17T20:53:40.372Z,10.02
2022-11-17T20:58:42.378Z,10.08
2022-11-17T21:03:44.169Z,10.19
2022-11-17T21:08:46.339Z,10.13
2022-11-17T21:13:47.831Z,10.02
2022-11-17T21:18:49.337Z,10.10
2022-11-17T21:23:55.031Z,10.13
2022-11-17T21:28:58.447Z,10.05
2022-11-17T21:34:06.468Z,9.98
2022-11-17T21:39:08.016Z,9.93
2022-11-17T21:44:12.241Z,9.97
2022-11-17T21:49:14.126Z,9.96
2022-11-17T21:54:15.772Z,10.01
2022-11-17T21:59:17.392Z,10.03
2022-11-17T22:04:19.051Z,10.10
2022-11-17T22:09:20.533Z,10.16
2022-11-17T22:14:22.385Z,10.10
2022-11-17T22:19:26.910Z,9.99
2022-11-17T22:24:28.376Z,9.98
2022-11-17T22:29:29.852Z,10.01
2022-11-17T22:34:31.260Z,10.02
2022-11-17T22:39:32.686Z,9.96
2022-11-17T22:44:34.076Z,9.93
2022-11-17T22:49:35.522Z,9.98
2022-11-17T22:54:36.993Z,10.08
2022-11-17T22:59:38.388Z,10.09
2022-11-17T23:04:39.821Z,10.04
2022-11-17T23:09:41.310Z,10.11
2022-11-17T23:14:42.807Z,10.06
2022-11-17T23:19:44.218Z,10.16
2022-11-17T23:24:45.615Z,10.22
2022-11-17T23:29:47.074Z,10.12
2022-11-17T23:34:48.533Z,10.04
2022-11-17T23:39:49.955Z,9.95
2022-11-17T23:44:51.350Z,9.90
2022-11-17T23:49:52.803Z,9.90
2022-11-17T23:54:54.250Z,9.79
2022-11-17T23:59:55.683Z,9.76
